createdAt,value
2018-03-17T13:57:48.321Z,99765.39
2018-03-17T13:58:54.858Z,99768.65
2018-03-17T14:00:01.599Z,99770.41
2018-03-17T14:01:07.562Z,99763.79
2018-03-17T14:02:13.496Z,99765.80
2018-03-17T14:03:19.428Z,99764.09
2018-03-17T14:04:26.111Z,99773.84
2018-03-17T14:05:32.994Z,99760.72
2018-03-17T14:06:39.708Z,99762.77
2018-03-17T14:07:45.585Z,99764.48
2018-03-17T14:08:51.589Z,99763.14
2018-03-17T14:09:57.285Z,99752.55
2018-03-17T14:11:03.264Z,99753.56
2018-03-17T14:12:09.224Z,99757.83
2018-03-17T14:13:15.075Z,99758.77
2018-03-17T14:14:21.752Z,99751.89
2018-03-17T14:15:28.091Z,99755.72
2018-03-17T14:16:34.113Z,99750.63
2018-03-17T14:17:40.996Z,99758.55
2018-03-17T14:18:47.066Z,99755.48
2018-03-17T14:19:53.517Z,99759.42
2018-03-17T14:20:59.773Z,99769.36
2018-03-17T14:22:05.916Z,99753.62
2018-03-17T14:23:12.069Z,99753.14
2018-03-17T14:24:18.111Z,99757.63
2018-03-17T14:25:24.161Z,99756.76
2018-03-17T14:26:30.350Z,99752.12
2018-03-17T14:27:36.353Z,99748.19
2018-03-17T14:28:42.410Z,99752.83
2018-03-17T14:29:48.414Z,99749.84
2018-03-17T14:30:55.851Z,99751.09
2018-03-17T14:32:01.851Z,99751.09
2018-03-17T14:33:08.664Z,99762.33
2018-03-17T14:34:15.303Z,99752.91
2018-03-17T14:35:21.405Z,99759.48
2018-03-17T14:36:27.778Z,99753.11
2018-03-17T14:37:34.992Z,99755.19
2018-03-17T14:38:41.280Z,99756.41
2018-03-17T14:39:49.275Z,99751.62
2018-03-17T14:40:55.473Z,99756.91
2018-03-17T14:42:03.199Z,99764.39
2018-03-17T14:43:10.496Z,99758.92
2018-03-17T14:44:17.637Z,99760.11
2018-03-17T14:45:23.897Z,99753.27
2018-03-17T14:46:31.085Z,99753.77
2018-03-17T14:47:38.418Z,99758.49
2018-03-17T14:48:44.594Z,99759.00
2018-03-17T14:49:52.341Z,99760.64
2018-03-17T14:51:00.323Z,99752.89
2018-03-17T14:52:06.475Z,99759.87
2018-03-17T14:53:12.637Z,99756.12
2018-03-17T14:54:19.060Z,99755.22
2018-03-17T14:55:25.178Z,99757.80
2018-03-17T14:56:32.013Z,99754.16
2018-03-17T14:57:39.059Z,99762.17
2018-03-17T14:58:47.385Z,99759.03
2018-03-17T14:59:53.558Z,99758.38
2018-03-17T15:01:00.422Z,99759.59
2018-03-17T15:02:06.625Z,99755.69
2018-03-17T15:03:12.745Z,99754.98
2018-03-17T15:04:19.092Z,99756.84
2018-03-17T15:05:25.512Z,99749.60
2018-03-17T15:06:32.248Z,99755.91
2018-03-17T15:07:38.196Z,99757.20
2018-03-17T15:08:44.398Z,99754.75
2018-03-17T15:09:53.176Z,99755.70
2018-03-17T15:11:01.141Z,99756.04
2018-03-17T15:12:08.160Z,99751.63
2018-03-17T15:13:14.315Z,99752.12
2018-03-17T15:14:20.222Z,99750.84
2018-03-17T15:15:26.331Z,99750.39
2018-03-17T15:16:32.101Z,99749.17
2018-03-17T15:17:38.923Z,99749.98
2018-03-17T15:18:44.864Z,99750.47
2018-03-17T15:19:50.818Z,99746.12
2018-03-17T15:20:57.519Z,99754.83
2018-03-17T15:22:04.393Z,99756.61
2018-03-17T15:23:10.352Z,99745.12
2018-03-17T15:24:17.025Z,99745.91
2018-03-17T15:25:24.944Z,99755.70
2018-03-17T15:26:31.605Z,99747.77
2018-03-17T15:27:38.236Z,99764.50
2018-03-17T15:28:44.169Z,99755.62
2018-03-17T15:29:49.981Z,99756.78
2018-03-17T15:30:55.872Z,99753.89
2018-03-17T15:32:01.735Z,99752.92
2018-03-17T15:33:08.385Z,99758.06
2018-03-17T15:34:14.336Z,99754.59
2018-03-17T15:35:20.732Z,99754.25
2018-03-17T15:36:26.884Z,99748.08
2018-03-17T15:37:32.946Z,99754.25
2018-03-17T15:38:38.980Z,99755.56
2018-03-17T15:39:45.284Z,99758.36
2018-03-17T15:40:51.584Z,99750.56
2018-03-17T15:41:57.977Z,99753.55
2018-03-17T15:43:05.735Z,99759.90
2018-03-17T15:44:12.302Z,99751.69
2018-03-17T15:45:18.392Z,99761.05
2018-03-17T15:46:24.363Z,99755.12
2018-03-17T15:47:30.340Z,99751.34
2018-03-17T15:48:36.382Z,99754.34
2018-03-17T15:49:42.537Z,99751.63
2018-03-17T15:50:48.535Z,99753.41
2018-03-17T15:51:55.315Z,99756.76
2018-03-17T15:53:02.286Z,99759.34
2018-03-17T15:54:08.359Z,99762.61
2018-03-17T15:55:15.294Z,99759.55
2018-03-17T15:56:22.052Z,99757.05
2018-03-17T15:57:28.064Z,99763.21
2018-03-17T15:58:34.095Z,99764.42
2018-03-17T15:59:40.964Z,99764.85
2018-03-17T16:00:47.115Z,99770.83
2018-03-17T16:01:53.172Z,99760.64
2018-03-17T16:02:59.275Z,99767.91
2018-03-17T16:04:05.354Z,99776.00
2018-03-17T16:05:11.512Z,99772.71
2018-03-17T16:06:17.483Z,99767.98
2018-03-17T16:07:24.059Z,99766.77
2018-03-17T16:08:30.855Z,99766.30
2018-03-17T16:09:37.039Z,99767.56
2018-03-17T16:10:42.929Z,99768.84
2018-03-17T16:11:49.852Z,99767.14
2018-03-17T16:12:55.899Z,99768.48
2018-03-17T16:14:02.748Z,99769.41
2018-03-17T16:15:09.032Z,99779.37
2018-03-17T16:16:14.903Z,99768.14
2018-03-17T16:17:20.898Z,99768.21
2018-03-17T16:18:26.918Z,99775.02
2018-03-17T16:19:32.916Z,99763.09
2018-03-17T16:20:39.784Z,99770.42
2018-03-17T16:21:45.621Z,99778.43
2018-03-17T16:22:51.669Z,99778.06
2018-03-17T16:23:57.598Z,99765.16
2018-03-17T16:25:03.477Z,99778.14
2018-03-17T16:26:09.491Z,99773.92
2018-03-17T16:27:15.396Z,99779.14
2018-03-17T16:28:21.597Z,99778.34
2018-03-17T16:29:27.432Z,99779.20
2018-03-17T16:30:33.408Z,99777.44
2018-03-17T16:31:40.203Z,99781.09
2018-03-17T16:32:47.740Z,99778.71
2018-03-17T16:33:53.679Z,99789.49
2018-03-17T16:34:59.602Z,99796.42
2018-03-17T16:36:07.166Z,99786.01
2018-03-17T16:37:13.944Z,99784.66
2018-03-17T16:38:20.654Z,99785.44
2018-03-17T16:39:26.716Z,99785.00
2018-03-17T16:40:32.683Z,99788.52
2018-03-17T16:41:38.646Z,99790.20
2018-03-17T16:42:45.452Z,99776.06
2018-03-17T16:43:51.426Z,99786.57
2018-03-17T16:44:57.172Z,99798.08
2018-03-17T16:46:03.152Z,99788.29
2018-03-17T16:47:08.839Z,99795.09
2018-03-17T16:48:14.870Z,99792.64
2018-03-17T16:49:20.918Z,99790.05
2018-03-17T16:50:26.929Z,99797.79
2018-03-17T16:51:33.750Z,99799.55
2018-03-17T16:52:39.765Z,99796.19
2018-03-17T16:53:45.749Z,99800.58
2018-03-17T16:54:52.084Z,99801.28
2018-03-17T16:55:58.187Z,99795.69
2018-03-17T16:57:05.833Z,99804.34
2018-03-17T16:58:11.863Z,99814.94
2018-03-17T16:59:18.893Z,99805.98
2018-03-17T17:00:25.650Z,99812.42
2018-03-17T17:01:32.510Z,99801.81
2018-03-17T17:02:38.721Z,99812.89
2018-03-17T17:03:44.834Z,99813.75
2018-03-17T17:04:50.920Z,99813.88
2018-03-17T17:05:56.969Z,99810.45
2018-03-17T17:07:03.278Z,99804.27
2018-03-17T17:08:10.908Z,99811.01
2018-03-17T17:09:17.058Z,99813.71
2018-03-17T17:10:24.748Z,99808.20
2018-03-17T17:11:30.718Z,99818.97
2018-03-17T17:12:37.479Z,99820.61
2018-03-17T17:13:43.710Z,99820.60
2018-03-17T17:14:49.379Z,99817.68
2018-03-17T17:15:55.401Z,99822.83
2018-03-17T17:17:01.360Z,99825.87
2018-03-17T17:18:07.191Z,99822.44
2018-03-17T17:19:13.162Z,99827.58
2018-03-17T17:20:19.094Z,99830.70
2018-03-17T17:21:25.129Z,99830.75
2018-03-17T17:22:31.260Z,99824.81
2018-03-17T17:23:38.051Z,99829.47
2018-03-17T17:24:44.109Z,99826.05
2018-03-17T17:25:50.765Z,99833.75
2018-03-17T17:26:57.374Z,99824.28
2018-03-17T17:28:03.374Z,99832.89
2018-03-17T17:29:09.515Z,99827.70
2018-03-17T17:30:15.568Z,99833.70
2018-03-17T17:31:21.612Z,99836.77
2018-03-17T17:32:27.646Z,99844.52
2018-03-17T17:33:33.912Z,99833.48
2018-03-17T17:34:39.829Z,99825.73
2018-03-17T17:35:46.615Z,99834.34
2018-03-17T17:36:52.577Z,99832.15
2018-03-17T17:37:58.620Z,99829.03
2018-03-17T17:39:03.959Z,99840.18
2018-03-17T17:40:10.130Z,99837.61
2018-03-17T17:41:16.111Z,99834.56
2018-03-17T17:42:22.842Z,99839.80
2018-03-17T17:43:28.847Z,99836.87
2018-03-17T17:44:35.819Z,99839.86
2018-03-17T17:45:43.646Z,99835.14
2018-03-17T17:46:49.973Z,99834.34
2018-03-17T17:47:55.965Z,99835.57
2018-03-17T17:49:02.752Z,99832.14
2018-03-17T17:50:08.740Z,99840.34
2018-03-17T17:51:14.812Z,99836.87
2018-03-17T17:52:20.843Z,99841.52
2018-03-17T17:53:26.829Z,99846.23
2018-03-17T17:54:32.855Z,99848.80
2018-03-17T17:55:39.104Z,99846.23
2018-03-17T17:56:45.078Z,99855.22
2018-03-17T17:57:51.925Z,99839.80
2018-03-17T17:58:57.906Z,99849.19
2018-03-17T18:00:05.694Z,99843.13
2018-03-17T18:01:13.344Z,99849.18
2018-03-17T18:02:20.142Z,99842.66
2018-03-17T18:03:26.916Z,99847.56
2018-03-17T18:04:32.991Z,99848.42
2018-03-17T18:05:38.955Z,99850.56
2018-03-17T18:06:45.925Z,99842.38
2018-03-17T18:07:51.880Z,99854.86
2018-03-17T18:08:57.861Z,99852.28
2018-03-17T18:10:05.096Z,99854.47
2018-03-17T18:11:11.112Z,99861.38
2018-03-17T18:12:17.051Z,99857.05
2018-03-17T18:13:22.773Z,99857.05
2018-03-17T18:14:29.873Z,99852.81
2018-03-17T18:15:35.690Z,99860.47
2018-03-17T18:16:43.452Z,99851.00
2018-03-17T18:17:49.582Z,99850.20
2018-03-17T18:18:55.566Z,99859.18
2018-03-17T18:20:02.482Z,99845.84
2018-03-17T18:21:08.532Z,99862.04
2018-03-17T18:22:14.704Z,99858.23
2018-03-17T18:23:20.704Z,99863.42
2018-03-17T18:24:26.643Z,99870.70
2018-03-17T18:25:35.392Z,99863.36
2018-03-17T18:26:41.333Z,99867.66
2018-03-17T18:27:47.642Z,99863.84
2018-03-17T18:28:54.744Z,99867.70
2018-03-17T18:30:00.692Z,99868.14
2018-03-17T18:31:06.691Z,99871.56
2018-03-17T18:32:12.680Z,99871.99
2018-03-17T18:33:18.502Z,99866.38
2018-03-17T18:34:25.254Z,99871.94
2018-03-17T18:35:31.985Z,99869.36
2018-03-17T18:36:37.949Z,99862.52
2018-03-17T18:37:43.909Z,99880.07
2018-03-17T18:38:49.913Z,99876.74
2018-03-17T18:39:55.927Z,99872.89
2018-03-17T18:41:02.635Z,99872.89
2018-03-17T18:42:08.323Z,99877.61
2018-03-17T18:43:15.911Z,99871.60
2018-03-17T18:44:21.941Z,99874.98
2018-03-17T18:45:28.637Z,99875.03
2018-03-17T18:46:34.568Z,99874.61
2018-03-17T18:47:40.770Z,99881.03
2018-03-17T18:48:46.994Z,99878.84
2018-03-17T18:49:53.016Z,99873.74
2018-03-17T18:50:59.757Z,99880.22
2018-03-17T18:52:05.787Z,99880.13
2018-03-17T18:53:11.755Z,99890.88
2018-03-17T18:54:17.706Z,99883.64
2018-03-17T18:55:24.058Z,99876.36
2018-03-17T18:56:30.009Z,99875.52
2018-03-17T18:57:36.008Z,99872.94
2018-03-17T18:58:42.007Z,99881.55
2018-03-17T18:59:48.788Z,99887.94
2018-03-17T19:00:55.533Z,99883.22
2018-03-17T19:02:01.511Z,99881.51
2018-03-17T19:03:07.499Z,99879.31
2018-03-17T19:04:14.381Z,99876.75
2018-03-17T19:05:21.182Z,99881.92
2018-03-17T19:06:28.144Z,99877.27
2018-03-17T19:07:35.777Z,99891.78
2018-03-17T19:08:41.737Z,99882.88
2018-03-17T19:09:47.700Z,99879.41
2018-03-17T19:10:53.738Z,99886.22
2018-03-17T19:12:00.682Z,99887.54
2018-03-17T19:13:06.611Z,99889.22
2018-03-17T19:14:12.600Z,99886.17
2018-03-17T19:15:18.480Z,99886.65
2018-03-17T19:16:25.267Z,99887.97
2018-03-17T19:17:31.513Z,99887.55
2018-03-17T19:18:37.503Z,99880.64
2018-03-17T19:19:43.471Z,99882.41
2018-03-17T19:20:49.424Z,99887.97
2018-03-17T19:21:56.217Z,99884.13
2018-03-17T19:23:01.969Z,99887.55
2018-03-17T19:24:07.972Z,99888.83
2018-03-17T19:25:14.069Z,99880.22
2018-03-17T19:26:20.671Z,99882.36
2018-03-17T19:27:26.805Z,99892.69
2018-03-17T19:28:32.870Z,99881.97
2018-03-17T19:29:39.245Z,99883.64
2018-03-17T19:30:45.354Z,99887.97
2018-03-17T19:31:51.300Z,99879.02
2018-03-17T19:32:57.329Z,99880.73
2018-03-17T19:34:03.283Z,99886.81
2018-03-17T19:35:09.199Z,99883.78
2018-03-17T19:36:15.386Z,99885.02
2018-03-17T19:37:22.435Z,99888.02
2018-03-17T19:38:28.449Z,99885.41
2018-03-17T19:39:34.431Z,99881.50
2018-03-17T19:40:40.417Z,99884.16
2018-03-17T19:41:46.448Z,99884.97
2018-03-17T19:42:53.305Z,99881.12
2018-03-17T19:43:59.064Z,99889.72
2018-03-17T19:45:05.300Z,99884.59
2018-03-17T19:46:11.985Z,99881.98
2018-03-17T19:47:18.520Z,99884.55
2018-03-17T19:48:25.908Z,99882.45
2018-03-17T19:49:32.431Z,99886.30
2018-03-17T19:50:39.971Z,99886.27
2018-03-17T19:51:45.842Z,99887.55
2018-03-17T19:52:52.338Z,99882.02
2018-03-17T19:53:58.488Z,99886.69
2018-03-17T19:55:04.483Z,99883.27
2018-03-17T19:56:12.034Z,99888.02
2018-03-17T19:57:17.943Z,99883.35
2018-03-17T19:58:25.620Z,99883.82
2018-03-17T19:59:32.525Z,99884.20
2018-03-17T20:00:39.208Z,99881.17
2018-03-17T20:01:45.192Z,99881.25
2018-03-17T20:02:51.994Z,99882.11
2018-03-17T20:03:58.787Z,99876.15
2018-03-17T20:05:04.902Z,99882.06
2018-03-17T20:06:10.701Z,99890.24
2018-03-17T20:07:17.512Z,99888.18
2018-03-17T20:08:23.497Z,99867.17
2018-03-17T20:09:29.605Z,99879.66
2018-03-17T20:10:35.631Z,99871.91
2018-03-17T20:11:42.385Z,99880.02
2018-03-17T20:12:49.180Z,99883.48
2018-03-17T20:13:56.298Z,99881.77
2018-03-17T20:15:02.916Z,99877.91
2018-03-17T20:16:11.049Z,99876.23
2018-03-17T20:17:17.061Z,99882.66
2018-03-17T20:18:23.081Z,99877.91
2018-03-17T20:19:30.000Z,99877.48
2018-03-17T20:20:36.172Z,99876.66
2018-03-17T20:21:42.260Z,99875.38
2018-03-17T20:22:49.062Z,99876.73
2018-03-17T20:23:55.797Z,99874.13
2018-03-17T20:25:01.863Z,99875.81
2018-03-17T20:26:07.943Z,99872.77
2018-03-17T20:27:16.108Z,99879.66
2018-03-17T20:28:24.452Z,99883.16
2018-03-17T20:29:30.753Z,99880.13
2018-03-17T20:30:36.827Z,99881.80
2018-03-17T20:31:42.906Z,99878.30
2018-03-17T20:32:48.954Z,99888.09
2018-03-17T20:33:55.105Z,99890.67
2018-03-17T20:35:01.099Z,99887.25
2018-03-17T20:36:07.224Z,99888.95
2018-03-17T20:37:13.475Z,99893.28
2018-03-17T20:38:21.452Z,99889.85
2018-03-17T20:39:28.415Z,99885.15
2018-03-17T20:40:34.655Z,99894.17
2018-03-17T20:41:41.280Z,99881.30
2018-03-17T20:42:47.387Z,99892.42
2018-03-17T20:43:54.428Z,99893.36
2018-03-17T20:45:00.435Z,99886.08
2018-03-17T20:46:08.380Z,99886.97
2018-03-17T20:47:15.745Z,99891.22
2018-03-17T20:48:22.107Z,99880.05
2018-03-17T20:49:29.278Z,99884.72
2018-03-17T20:50:36.172Z,99890.71
2018-03-17T20:51:44.338Z,99897.60
2018-03-17T20:52:50.782Z,99886.52
2018-03-17T20:53:59.014Z,99891.22
2018-03-17T20:55:05.556Z,99883.94
2018-03-17T20:56:14.430Z,99889.12
2018-03-17T20:57:21.883Z,99898.11
2018-03-17T20:58:27.924Z,99898.95
2018-03-17T20:59:35.627Z,99881.88
2018-03-17T21:00:42.764Z,99888.69
2018-03-17T21:01:49.549Z,99881.80
2018-03-17T21:02:56.600Z,99895.54
2018-03-17T21:04:04.498Z,99885.69
2018-03-17T21:05:11.747Z,99900.24
2018-03-17T21:06:18.151Z,99894.22
2018-03-17T21:07:24.276Z,99891.26
2018-03-17T21:08:30.712Z,99895.50
2018-03-17T21:09:37.780Z,99896.42
2018-03-17T21:10:44.163Z,99899.81
2018-03-17T21:11:51.987Z,99899.39
2018-03-17T21:12:58.370Z,99897.56
2018-03-17T21:14:04.645Z,99895.45
2018-03-17T21:15:11.038Z,99889.04
2018-03-17T21:16:17.170Z,99895.54
2018-03-17T21:17:24.297Z,99899.39
2018-03-17T21:18:32.950Z,99892.11
2018-03-17T21:19:38.998Z,99898.92
2018-03-17T21:20:45.640Z,99899.81
2018-03-17T21:21:52.522Z,99895.18
2018-03-17T21:22:58.699Z,99901.56
2018-03-17T21:24:05.548Z,99897.28
2018-03-17T21:25:13.317Z,99903.23
2018-03-17T21:26:19.548Z,99904.95
2018-03-17T21:27:27.434Z,99900.67
2018-03-17T21:28:33.955Z,99908.41
2018-03-17T21:29:41.014Z,99902.78
2018-03-17T21:30:47.309Z,99891.22
2018-03-17T21:31:53.373Z,99898.49
2018-03-17T21:32:59.591Z,99910.05
2018-03-17T21:34:06.711Z,99901.95
2018-03-17T21:35:12.791Z,99900.64
2018-03-17T21:36:19.668Z,99910.05
2018-03-17T21:37:26.011Z,99906.59
2018-03-17T21:38:32.946Z,99907.02
2018-03-17T21:39:38.930Z,99904.84
2018-03-17T21:40:44.991Z,99899.31
2018-03-17T21:41:53.045Z,99905.73
2018-03-17T21:42:59.821Z,99900.67
2018-03-17T21:44:06.142Z,99909.20
2018-03-17T21:45:13.570Z,99895.11
2018-03-17T21:46:20.238Z,99895.50
2018-03-17T21:47:26.293Z,99895.46
2018-03-17T21:48:32.252Z,99892.07
2018-03-17T21:49:39.573Z,99892.07
2018-03-17T21:51:46.536Z,99896.27
2018-03-17T21:52:53.728Z,99892.77
2018-03-17T21:54:00.619Z,99895.34
2018-03-17T21:55:06.667Z,99898.80
2018-03-17T21:56:12.683Z,99896.70
2018-03-17T21:57:20.224Z,99901.45
2018-03-17T21:58:26.243Z,99898.06
2018-03-17T21:59:32.906Z,99908.34
2018-03-17T22:00:39.716Z,99900.20
2018-03-17T22:01:47.621Z,99896.78
2018-03-17T22:02:53.632Z,99892.93
2018-03-17T22:03:59.920Z,99891.61
2018-03-17T22:05:06.306Z,99907.91
2018-03-17T22:06:12.403Z,99906.20
2018-03-17T22:07:18.418Z,99893.82
2018-03-17T22:08:24.439Z,99900.20
2018-03-17T22:09:30.974Z,99894.61
2018-03-17T22:10:36.993Z,99895.03
2018-03-17T22:11:43.035Z,99892.03
2018-03-17T22:12:49.054Z,99900.20
2018-03-17T22:13:55.056Z,99894.68
2018-03-17T22:15:01.817Z,99895.57
2018-03-17T22:16:07.866Z,99903.20
2018-03-17T22:17:14.713Z,99897.67
2018-03-17T22:18:21.677Z,99895.18
2018-03-17T22:19:27.827Z,99901.10
2018-03-17T22:20:34.757Z,99903.59
2018-03-17T22:21:41.518Z,99909.63
2018-03-17T22:22:48.675Z,99899.31
2018-03-17T22:23:54.565Z,99900.59
2018-03-17T22:25:00.529Z,99895.93
2018-03-17T22:26:06.423Z,99895.07
2018-03-17T22:27:13.174Z,99895.45
2018-03-17T22:28:19.316Z,99896.75
2018-03-17T22:29:25.506Z,99895.50
2018-03-17T22:30:32.328Z,99884.83
2018-03-17T22:31:39.376Z,99870.75
2018-03-17T22:32:45.332Z,99889.19
2018-03-17T22:33:51.371Z,99887.48
2018-03-17T22:34:57.347Z,99890.91
2018-03-17T22:36:03.298Z,99894.75
2018-03-17T22:37:09.277Z,99888.80
2018-03-17T22:38:17.591Z,99889.66
2018-03-17T22:39:24.658Z,99887.97
2018-03-17T22:40:31.551Z,99891.79
2018-03-17T22:41:37.805Z,99891.86
2018-03-17T22:42:43.823Z,99894.88
2018-03-17T22:43:49.900Z,99894.88
2018-03-17T22:44:56.463Z,99897.84
2018-03-17T22:46:02.613Z,99894.85
2018-03-17T22:47:08.556Z,99897.45
2018-03-17T22:48:15.188Z,99911.59
2018-03-17T22:49:21.226Z,99906.47
2018-03-17T22:50:28.326Z,99894.91
2018-03-17T22:51:34.389Z,99894.03
2018-03-17T22:52:40.411Z,99893.63
2018-03-17T22:53:46.267Z,99897.94
2018-03-17T22:54:53.003Z,99897.08
2018-03-17T22:55:58.992Z,99896.65
2018-03-17T22:57:04.887Z,99890.27
2018-03-17T22:58:10.577Z,99893.20
2018-03-17T22:59:16.467Z,99897.94
2018-03-17T23:00:22.278Z,99901.78
2018-03-17T23:01:28.288Z,99893.69
2018-03-17T23:02:34.051Z,99899.68
2018-03-17T23:03:40.716Z,99894.48
2018-03-17T23:04:46.670Z,99905.17
2018-03-17T23:05:52.608Z,99894.09
2018-03-17T23:06:58.450Z,99899.22
2018-03-17T23:08:04.239Z,99898.82
2018-03-17T23:09:10.112Z,99897.97
2018-03-17T23:10:16.902Z,99892.84
2018-03-17T23:11:22.846Z,99898.00
2018-03-17T23:12:29.589Z,99903.13
2018-03-17T23:13:35.459Z,99895.86
2018-03-17T23:14:41.199Z,99894.59
2018-03-17T23:15:47.759Z,99899.70
2018-03-17T23:16:55.036Z,99896.28
2018-03-17T23:18:00.937Z,99912.56
2018-03-17T23:19:07.600Z,99904.41
2018-03-17T23:20:13.316Z,99900.98
2018-03-17T23:21:19.228Z,99911.70
2018-03-17T23:22:25.174Z,99910.42
2018-03-17T23:23:30.996Z,99912.13
2018-03-17T23:24:37.243Z,99914.70
2018-03-17T23:25:43.013Z,99910.84
2018-03-17T23:26:48.832Z,99914.29
2018-03-17T23:27:54.823Z,99919.85
2018-03-17T23:29:00.479Z,99915.12
2018-03-17T23:30:05.844Z,99913.41
2018-03-17T23:31:11.675Z,99924.14
2018-03-17T23:32:18.833Z,99927.55
2018-03-17T23:33:24.482Z,99924.97
2018-03-17T23:34:30.256Z,99924.11
2018-03-17T23:35:37.560Z,99929.22
2018-03-17T23:36:43.894Z,99924.08
2018-03-17T23:37:50.546Z,99931.30
2018-03-17T23:38:56.162Z,99922.34
2018-03-17T23:40:01.693Z,99926.16
2018-03-17T23:41:07.247Z,99926.22
2018-03-17T23:42:12.952Z,99928.38
2018-03-17T23:43:18.477Z,99924.50
2018-03-17T23:44:24.373Z,99923.68
2018-03-17T23:45:29.907Z,99923.25
2018-03-17T23:46:35.480Z,99924.95
2018-03-17T23:47:41.026Z,99930.07
2018-03-17T23:48:46.540Z,99923.20
2018-03-17T23:49:52.080Z,99915.91
2018-03-17T23:50:57.620Z,99922.29
2018-03-17T23:52:03.150Z,99936.41
2018-03-17T23:53:09.536Z,99930.85
2018-03-17T23:54:15.072Z,99933.78
2018-03-17T23:55:20.620Z,99938.13
2018-03-17T23:56:26.365Z,99931.28
2018-03-17T23:57:32.074Z,99931.70
2018-03-17T23:58:37.592Z,99932.98
2018-03-17T23:59:43.894Z,99933.81
